Time;durP1;ratioP1;P1;durP2;ratioP2;P2;SDS_P1;SDS_P2;PMS_P1;PMS_P2;Temp;Humidity;BMP_temperature;BMP_pressure;BME280_temperature;BME280_humidity;BME280_pressure;Samples;Min_cycle;Max_cycle;Signal;HPM_P1;HPM_P2
2023/08/18 00:01:26;;;;;;;12.00;10.87;;;26.20;99.90;;;;;;4964530;28;20178;-71
2023/08/18 00:03:51;;;;;;;11.27;10.17;;;26.20;99.90;;;;;;4968073;28;20190;-71
2023/08/18 00:06:17;;;;;;;12.33;11.13;;;26.20;99.90;;;;;;4962112;28;20505;-71
2023/08/18 00:08:43;;;;;;;12.40;11.10;;;26.20;99.90;;;;;;4965887;28;20186;-71
2023/08/18 00:11:08;;;;;;;11.23;10.23;;;26.10;99.90;;;;;;4961514;28;20183;-71
2023/08/18 00:13:34;;;;;;;13.23;11.20;;;26.10;99.90;;;;;;4964870;28;20187;-71
2023/08/18 00:16:00;;;;;;;12.23;10.10;;;26.10;99.90;;;;;;4958869;28;20558;-70
2023/08/18 00:18:26;;;;;;;12.00;10.93;;;26.00;99.90;;;;;;4962588;28;21033;-71
2023/08/18 00:20:51;;;;;;;12.27;11.00;;;26.00;99.90;;;;;;4962876;28;20606;-71
2023/08/18 00:23:17;;;;;;;11.53;10.43;;;26.00;99.90;;;;;;4966870;28;20174;-71
2023/08/18 00:25:42;;;;;;;12.53;11.33;;;25.90;99.90;;;;;;4965757;28;20239;-71
2023/08/18 00:28:08;;;;;;;12.30;11.10;;;25.90;99.90;;;;;;4959159;28;20191;-71
2023/08/18 00:30:34;;;;;;;12.53;11.37;;;25.90;99.90;;;;;;4961204;28;20225;-71
2023/08/18 00:33:00;;;;;;;12.33;11.13;;;25.90;99.90;;;;;;4947902;28;20191;-71
2023/08/18 00:35:26;;;;;;;12.23;11.13;;;25.90;99.90;;;;;;4963842;28;20274;-71
2023/08/18 00:37:51;;;;;;;11.60;10.57;;;25.90;99.90;;;;;;4964028;28;20460;-71
2023/08/18 00:40:17;;;;;;;11.43;10.30;;;25.80;99.90;;;;;;4964798;28;20221;-71
2023/08/18 00:42:43;;;;;;;11.83;10.63;;;25.80;99.90;;;;;;4961481;28;20866;-71
2023/08/18 00:45:09;;;;;;;11.07;10.07;;;25.80;99.90;;;;;;4961522;28;20216;-71
2023/08/18 00:47:36;;;;;;;11.93;10.73;;;25.80;99.90;;;;;;4964425;28;20195;-71
2023/08/18 00:50:03;;;;;;;12.33;11.03;;;25.80;99.90;;;;;;4964528;28;20528;-69
2023/08/18 00:52:29;;;;;;;13.37;10.90;;;25.80;99.90;;;;;;4964831;28;20809;-70
2023/08/18 00:54:54;;;;;;;12.60;11.50;;;25.80;99.90;;;;;;4961716;28;20489;-70
2023/08/18 00:57:20;;;;;;;12.43;11.23;;;25.80;99.90;;;;;;4963043;28;20459;-70
2023/08/18 00:59:46;;;;;;;11.50;10.50;;;25.70;99.90;;;;;;4963847;28;20194;-70
2023/08/18 01:02:12;;;;;;;13.37;11.30;;;25.70;99.90;;;;;;4964861;28;20197;-69
2023/08/18 01:04:38;;;;;;;11.50;10.43;;;25.70;99.90;;;;;;4961882;28;20216;-69
2023/08/18 01:07:04;;;;;;;12.07;10.97;;;25.70;99.90;;;;;;4962170;28;20437;-69
2023/08/18 01:09:31;;;;;;;11.33;10.23;;;25.70;99.90;;;;;;4966702;28;20190;-72
2023/08/18 01:12:23;;;;;;;15.10;11.07;;;25.60;99.90;;;;;;4964101;28;20480;-70
2023/08/18 01:15:12;;;;;;;11.53;10.53;;;25.60;99.90;;;;;;4965512;28;20477;-70
2023/08/18 01:18:01;;;;;;;12.67;11.10;;;25.60;99.90;;;;;;4964914;28;20802;-70
2023/08/18 01:20:28;;;;;;;12.33;11.20;;;25.50;99.90;;;;;;4964617;28;20449;-70
2023/08/18 01:22:58;;;;;;;12.73;11.53;;;25.50;99.90;;;;;;4968553;28;20430;-71
2023/08/18 01:25:24;;;;;;;11.00;9.90;;;25.50;99.90;;;;;;4961254;28;20585;-70
2023/08/18 01:27:51;;;;;;;13.00;11.10;;;25.40;99.90;;;;;;4968697;28;20520;-70
2023/08/18 01:30:17;;;;;;;11.60;10.60;;;25.40;99.90;;;;;;4965175;28;20437;-70
2023/08/18 01:32:57;;;;;;;13.37;12.17;;;25.40;99.90;;;;;;4961890;28;20417;-70
2023/08/18 01:35:27;;;;;;;16.13;13.33;;;25.30;99.90;;;;;;4964449;28;20349;-70
2023/08/18 01:37:54;;;;;;;13.00;11.80;;;25.30;99.90;;;;;;4951102;28;20538;-70
2023/08/18 01:40:21;;;;;;;12.80;11.50;;;25.30;99.90;;;;;;4961000;28;20687;-71
2023/08/18 01:42:47;;;;;;;14.07;12.67;;;25.20;99.90;;;;;;4963046;28;20437;-70
2023/08/18 01:45:14;;;;;;;12.23;11.13;;;25.20;99.90;;;;;;4964126;28;20496;-70
2023/08/18 01:47:40;;;;;;;12.53;11.43;;;25.20;99.90;;;;;;4966305;28;20488;-71
2023/08/18 01:50:06;;;;;;;13.23;11.97;;;25.10;99.90;;;;;;4968950;28;20560;-70
2023/08/18 01:52:32;;;;;;;13.17;11.87;;;25.10;99.90;;;;;;4960643;28;20191;-70
2023/08/18 01:54:57;;;;;;;12.20;11.17;;;25.00;99.90;;;;;;4966307;28;20226;-70
2023/08/18 01:57:23;;;;;;;13.57;12.13;;;25.00;99.90;;;;;;4965743;28;20191;-70
2023/08/18 01:59:48;;;;;;;11.20;10.10;;;25.00;99.90;;;;;;4961834;28;20664;-70
2023/08/18 02:02:14;;;;;;;13.23;11.00;;;25.00;99.90;;;;;;4966442;28;20216;-70
2023/08/18 02:04:40;;;;;;;14.00;12.60;;;25.00;99.90;;;;;;4968874;28;20211;-70
2023/08/18 02:07:05;;;;;;;13.30;12.20;;;24.90;99.90;;;;;;4965895;28;20190;-70
2023/08/18 02:09:31;;;;;;;13.53;12.33;;;24.90;99.90;;;;;;4966516;28;20824;-70
2023/08/18 02:11:56;;;;;;;13.00;11.70;;;24.80;99.90;;;;;;4967094;28;20308;-70
2023/08/18 02:14:22;;;;;;;12.77;11.60;;;24.80;99.90;;;;;;4966845;28;20263;-70
2023/08/18 02:16:48;;;;;;;13.03;11.73;;;24.80;99.90;;;;;;4963568;28;20277;-70
2023/08/18 02:19:14;;;;;;;12.50;10.97;;;24.80;99.90;;;;;;4967261;28;20273;-71
2023/08/18 02:21:39;;;;;;;11.47;10.40;;;24.70;99.90;;;;;;4965138;28;20434;-70
2023/08/18 02:24:05;;;;;;;12.93;11.63;;;24.70;99.90;;;;;;4959478;28;20207;-71
2023/08/18 02:26:31;;;;;;;14.97;11.83;;;24.70;99.90;;;;;;4966338;28;20273;-71
2023/08/18 02:28:56;;;;;;;12.20;11.10;;;24.70;99.90;;;;;;4966644;28;20186;-71
2023/08/18 02:31:22;;;;;;;11.37;10.27;;;24.60;99.90;;;;;;4964868;28;20186;-70
2023/08/18 02:33:47;;;;;;;12.03;10.90;;;24.70;99.90;;;;;;4961563;28;20296;-70
2023/08/18 02:36:13;;;;;;;12.23;11.07;;;24.60;99.90;;;;;;4965331;28;20198;-70
2023/08/18 02:38:39;;;;;;;11.20;10.10;;;24.60;99.90;;;;;;4965663;28;20225;-70
2023/08/18 02:41:04;;;;;;;16.73;10.83;;;24.60;99.90;;;;;;4969155;28;20537;-70
2023/08/18 02:43:30;;;;;;;12.30;11.17;;;24.60;99.90;;;;;;4968592;28;20179;-70
2023/08/18 02:45:57;;;;;;;12.87;11.77;;;24.60;99.90;;;;;;4963972;28;20579;-70
2023/08/18 02:48:27;;;;;;;15.47;11.70;;;24.50;99.90;;;;;;4966756;28;20183;-70
2023/08/18 02:51:06;;;;;;;11.60;10.50;;;24.50;99.90;;;;;;4965648;28;20418;-70
2023/08/18 02:53:32;;;;;;;11.40;10.20;;;24.50;99.90;;;;;;4961752;28;20476;-70
2023/08/18 02:55:58;;;;;;;11.63;10.53;;;24.50;99.90;;;;;;4966403;28;20829;-71
2023/08/18 02:58:27;;;;;;;11.53;10.43;;;24.50;99.90;;;;;;4966774;28;20437;-72
2023/08/18 03:00:52;;;;;;;11.80;9.40;;;24.50;99.90;;;;;;4966399;28;20505;-72
2023/08/18 03:03:18;;;;;;;11.50;10.40;;;24.50;99.90;;;;;;4967025;28;20517;-72
2023/08/18 03:05:45;;;;;;;11.13;10.03;;;24.50;99.90;;;;;;4967710;28;20218;-71
2023/08/18 03:08:11;;;;;;;11.00;9.97;;;24.50;99.90;;;;;;4966458;28;20194;-71
2023/08/18 03:10:36;;;;;;;12.90;9.60;;;24.50;99.90;;;;;;4963789;28;20515;-71
2023/08/18 03:13:03;;;;;;;10.17;9.27;;;24.40;99.90;;;;;;4964351;28;20202;-71
2023/08/18 03:15:30;;;;;;;10.30;9.30;;;24.40;99.90;;;;;;4965895;28;20285;-71
2023/08/18 03:17:55;;;;;;;13.60;10.60;;;24.40;99.90;;;;;;4964985;28;20434;-71
2023/08/18 03:20:21;;;;;;;10.60;9.70;;;24.40;99.90;;;;;;4968201;28;20914;-71
2023/08/18 03:22:46;;;;;;;11.87;10.37;;;24.40;99.90;;;;;;4964661;28;20186;-71
2023/08/18 03:25:12;;;;;;;11.93;10.73;;;24.40;99.90;;;;;;4964027;28;20206;-71
2023/08/18 03:27:38;;;;;;;10.83;9.83;;;24.30;99.90;;;;;;4963529;28;20217;-71
2023/08/18 03:30:04;;;;;;;11.97;9.50;;;24.30;99.90;;;;;;4965431;28;20194;-71
2023/08/18 03:32:31;;;;;;;11.03;9.93;;;24.30;99.90;;;;;;4967981;28;20210;-71
2023/08/18 03:34:57;;;;;;;10.93;9.20;;;24.30;99.90;;;;;;4966203;28;21052;-71
2023/08/18 03:37:22;;;;;;;18.33;11.03;;;24.20;99.90;;;;;;4962233;28;20450;-71
2023/08/18 03:39:48;;;;;;;10.40;9.40;;;24.20;99.90;;;;;;4969184;28;20193;-71
2023/08/18 03:42:14;;;;;;;10.20;9.10;;;24.20;99.90;;;;;;4959936;28;20273;-71
2023/08/18 03:44:40;;;;;;;10.63;8.97;;;24.20;99.90;;;;;;4963837;28;20590;-69
2023/08/18 03:47:05;;;;;;;10.00;9.00;;;24.20;99.90;;;;;;4964757;28;20496;-71
2023/08/18 03:49:31;;;;;;;10.60;9.10;;;24.10;99.90;;;;;;4973684;28;20273;-69
2023/08/18 03:51:56;;;;;;;10.03;9.13;;;24.20;99.90;;;;;;4959998;28;20198;-71
2023/08/18 03:54:22;;;;;;;9.20;8.30;;;24.10;99.90;;;;;;4958154;28;20233;-69
2023/08/18 03:56:48;;;;;;;9.80;8.90;;;24.10;99.90;;;;;;4961404;28;20187;-72
2023/08/18 03:59:13;;;;;;;10.23;9.23;;;24.10;99.90;;;;;;4958757;28;20244;-71
2023/08/18 04:01:39;;;;;;;10.30;8.93;;;24.10;99.90;;;;;;4961704;28;20222;-70
2023/08/18 04:04:04;;;;;;;10.27;9.27;;;24.00;99.90;;;;;;4963490;28;20206;-70
2023/08/18 04:06:30;;;;;;;9.00;8.10;;;24.00;99.90;;;;;;4962328;28;20186;-70
2023/08/18 04:09:15;;;;;;;9.60;8.57;;;24.00;99.90;;;;;;4962589;28;20194;-70
2023/08/18 04:11:41;;;;;;;10.70;8.70;;;24.00;99.90;;;;;;4956094;28;20194;-71
2023/08/18 04:14:06;;;;;;;10.93;9.93;;;24.00;99.90;;;;;;4962949;28;21010;-70
2023/08/18 04:16:32;;;;;;;10.13;9.30;;;23.90;99.90;;;;;;4962422;28;20201;-70
2023/08/18 04:18:58;;;;;;;12.17;10.37;;;23.90;99.90;;;;;;4967354;28;20659;-70
2023/08/18 04:21:25;;;;;;;11.90;10.77;;;23.90;99.90;;;;;;4963667;28;20244;-70
2023/08/18 04:23:51;;;;;;;10.10;9.13;;;23.80;99.90;;;;;;4960317;28;20542;-71
2023/08/18 04:26:16;;;;;;;12.50;11.23;;;23.90;99.90;;;;;;4964453;28;20429;-71
2023/08/18 04:28:42;;;;;;;11.50;9.80;;;23.80;99.90;;;;;;4967686;28;20557;-70
2023/08/18 04:31:07;;;;;;;11.97;10.87;;;23.80;99.90;;;;;;4956842;28;20273;-70
2023/08/18 04:33:33;;;;;;;9.27;8.37;;;23.80;99.90;;;;;;4961796;28;20206;-70
2023/08/18 04:35:58;;;;;;;11.50;8.30;;;23.80;99.90;;;;;;4962406;28;20210;-70
2023/08/18 04:38:24;;;;;;;10.93;9.30;;;23.80;99.90;;;;;;4957482;28;20261;-70
2023/08/18 04:41:00;;;;;;;10.10;8.50;;;23.80;99.90;;;;;;4960872;28;20206;-70
2023/08/18 04:43:30;;;;;;;12.30;9.57;;;23.80;99.90;;;;;;4960537;28;20217;-70
2023/08/18 04:45:56;;;;;;;12.50;8.33;;;23.80;99.90;;;;;;4962898;28;20469;-70
2023/08/18 04:48:23;;;;;;;9.40;8.03;;;23.80;99.90;;;;;;4962542;28;20442;-70
2023/08/18 04:50:49;;;;;;;13.17;9.80;;;23.70;99.90;;;;;;4962381;28;20441;-69
2023/08/18 04:53:16;;;;;;;13.90;9.03;;;23.80;99.90;;;;;;4962117;28;20485;-69
2023/08/18 04:55:42;;;;;;;12.17;9.73;;;23.80;99.90;;;;;;4964500;28;21208;-70
2023/08/18 04:58:12;;;;;;;10.40;9.50;;;23.80;99.90;;;;;;4961614;28;20453;-70
2023/08/18 05:00:44;;;;;;;12.33;9.90;;;23.70;99.90;;;;;;4964715;28;20959;-70
2023/08/18 05:03:10;;;;;;;11.90;10.70;;;23.70;99.90;;;;;;4960360;28;20820;-70
2023/08/18 05:05:56;;;;;;;11.53;10.33;;;23.70;99.90;;;;;;4959003;28;20449;-70
2023/08/18 05:08:21;;;;;;;13.83;10.67;;;23.70;99.90;;;;;;4965607;28;20496;-70
2023/08/18 05:10:47;;;;;;;12.10;10.73;;;23.70;99.90;;;;;;4966452;28;20501;-70
2023/08/18 05:13:12;;;;;;;11.70;10.50;;;23.60;99.90;;;;;;4964746;28;20194;-70
2023/08/18 05:15:38;;;;;;;13.77;10.97;;;23.60;99.90;;;;;;4970135;28;20214;-70
2023/08/18 05:18:04;;;;;;;11.50;10.50;;;23.50;99.90;;;;;;4966932;28;20183;-71
2023/08/18 05:20:29;;;;;;;12.33;11.13;;;23.50;99.90;;;;;;4967805;28;20175;-71
2023/08/18 05:22:55;;;;;;;10.70;9.80;;;23.50;99.90;;;;;;4966208;28;20273;-71
2023/08/18 05:25:21;;;;;;;12.73;11.10;;;23.50;99.90;;;;;;4969330;28;20640;-71
2023/08/18 05:27:47;;;;;;;13.60;9.73;;;23.50;99.90;;;;;;4969422;28;20171;-71
2023/08/18 05:30:13;;;;;;;11.80;10.60;;;23.50;99.90;;;;;;4968590;28;20978;-70
2023/08/18 05:32:39;;;;;;;11.13;10.00;;;23.50;99.90;;;;;;4966023;28;20197;-70
2023/08/18 05:35:05;;;;;;;11.33;10.33;;;23.40;99.90;;;;;;4965809;28;20474;-70
2023/08/18 05:37:31;;;;;;;13.90;10.73;;;23.50;99.90;;;;;;4970763;28;20183;-70
2023/08/18 05:39:56;;;;;;;11.30;10.30;;;23.50;99.90;;;;;;4966919;28;20434;-70
2023/08/18 05:42:22;;;;;;;13.23;11.83;;;23.50;99.90;;;;;;4966387;28;20214;-71
2023/08/18 05:44:48;;;;;;;15.23;10.70;;;23.50;99.90;;;;;;4967177;28;20253;-69
2023/08/18 05:47:14;;;;;;;12.60;9.00;;;23.50;99.90;;;;;;4964216;28;20186;-72
2023/08/18 05:49:39;;;;;;;11.17;8.43;;;23.50;99.90;;;;;;4968069;28;20445;-69
2023/08/18 05:52:05;;;;;;;9.20;8.30;;;23.40;99.90;;;;;;4965872;28;20195;-69
2023/08/18 05:54:31;;;;;;;8.60;7.73;;;23.30;99.90;;;;;;4967303;28;21622;-69
2023/08/18 05:56:57;;;;;;;9.73;7.83;;;23.20;99.90;;;;;;4965573;28;20187;-69
2023/08/18 05:59:22;;;;;;;9.60;8.70;;;23.30;99.90;;;;;;4966872;28;20456;-69
2023/08/18 06:01:50;;;;;;;11.87;8.30;;;23.20;99.90;;;;;;4967403;28;20210;-69
2023/08/18 06:04:15;;;;;;;8.40;7.60;;;23.10;99.90;;;;;;4967685;28;20203;-70
2023/08/18 06:06:41;;;;;;;8.70;7.77;;;23.20;99.90;;;;;;4962383;28;20962;-71
2023/08/18 06:09:06;;;;;;;10.20;9.20;;;23.20;99.90;;;;;;4964473;28;20191;-70
2023/08/18 06:11:32;;;;;;;8.90;7.50;;;23.20;99.90;;;;;;4969923;28;20585;-70
2023/08/18 06:13:59;;;;;;;9.90;8.93;;;23.20;99.90;;;;;;4967881;28;20256;-70
2023/08/18 06:16:24;;;;;;;9.33;8.43;;;23.10;99.90;;;;;;4968436;28;20188;-70
2023/08/18 06:18:50;;;;;;;9.70;7.60;;;23.10;99.90;;;;;;4967069;28;20449;-70
2023/08/18 06:21:16;;;;;;;12.23;8.70;;;23.20;99.90;;;;;;4968594;28;20390;-70
2023/08/18 06:23:41;;;;;;;12.90;7.20;;;23.20;99.90;;;;;;4968081;28;20185;-70
2023/08/18 06:26:07;;;;;;;8.30;7.50;;;23.20;99.90;;;;;;4963941;28;20292;-71
2023/08/18 06:28:32;;;;;;;8.57;7.83;;;23.20;99.90;;;;;;4966940;28;20523;-70
2023/08/18 06:31:05;;;;;;;15.07;7.70;;;23.20;99.90;;;;;;4966135;28;20269;-70
2023/08/18 06:33:30;;;;;;;9.73;7.47;;;23.20;99.90;;;;;;4966101;28;20265;-70
2023/08/18 06:35:57;;;;;;;12.20;7.20;;;23.20;99.90;;;;;;4963302;28;21080;-70
2023/08/18 06:38:23;;;;;;;10.50;7.30;;;23.30;99.90;;;;;;4964083;28;20254;-71
2023/08/18 06:40:48;;;;;;;8.37;7.13;;;23.30;99.90;;;;;;4966093;28;20430;-70
2023/08/18 06:43:14;;;;;;;12.80;8.20;;;23.40;99.90;;;;;;4965052;28;20357;-70
2023/08/18 06:45:39;;;;;;;8.30;7.50;;;23.40;99.90;;;;;;4968859;28;20628;-70
2023/08/18 06:48:05;;;;;;;9.63;8.73;;;23.40;99.90;;;;;;4968074;28;20596;-70
2023/08/18 06:50:31;;;;;;;8.50;7.70;;;23.50;99.90;;;;;;4963872;28;20561;-70
2023/08/18 06:52:56;;;;;;;11.33;8.70;;;23.50;99.90;;;;;;4964570;28;20194;-70
2023/08/18 06:55:24;;;;;;;12.00;9.17;;;23.50;99.90;;;;;;4965428;28;20730;-71
2023/08/18 06:57:50;;;;;;;13.00;8.60;;;23.60;99.90;;;;;;4968690;28;20202;-70
2023/08/18 07:00:18;;;;;;;15.30;8.20;;;23.70;99.90;;;;;;4966870;28;20810;-70
2023/08/18 07:02:44;;;;;;;11.83;9.03;;;23.60;99.90;;;;;;4964840;28;20676;-70
2023/08/18 07:05:11;;;;;;;11.43;9.00;;;23.70;99.90;;;;;;4962000;28;20495;-70
2023/08/18 07:07:37;;;;;;;9.40;8.53;;;23.80;99.90;;;;;;4967877;28;20185;-71
2023/08/18 07:10:03;;;;;;;9.10;8.20;;;23.80;99.90;;;;;;4963799;28;20976;-71
2023/08/18 07:12:28;;;;;;;12.63;9.43;;;23.90;99.90;;;;;;4965748;28;20182;-70
2023/08/18 07:14:54;;;;;;;9.00;8.00;;;23.90;99.90;;;;;;4965805;28;20301;-71
2023/08/18 07:17:19;;;;;;;9.63;8.83;;;24.00;99.90;;;;;;4958535;28;20183;-70
2023/08/18 07:19:45;;;;;;;8.73;7.93;;;24.00;99.90;;;;;;4967419;28;20241;-70
2023/08/18 07:22:11;;;;;;;10.23;9.10;;;24.10;99.90;;;;;;4966207;28;20190;-70
2023/08/18 07:24:36;;;;;;;11.17;8.63;;;24.10;99.90;;;;;;4964529;28;20194;-71
2023/08/18 07:27:03;;;;;;;12.17;11.03;;;24.20;99.90;;;;;;4964976;28;20182;-71
2023/08/18 07:29:28;;;;;;;10.37;9.27;;;24.20;99.90;;;;;;4967168;28;20189;-71
2023/08/18 07:31:55;;;;;;;20.30;13.00;;;24.30;99.90;;;;;;4968025;28;20438;-70
2023/08/18 07:34:20;;;;;;;10.40;9.30;;;24.40;99.90;;;;;;4962973;28;20798;-70
2023/08/18 07:36:46;;;;;;;13.90;9.17;;;24.30;99.90;;;;;;4964279;28;20434;-70
2023/08/18 07:39:12;;;;;;;19.27;9.40;;;24.30;99.90;;;;;;4964626;28;20218;-70
2023/08/18 07:41:40;;;;;;;12.70;11.37;;;24.40;99.90;;;;;;4966687;28;20507;-70
2023/08/18 07:44:07;;;;;;;10.13;8.83;;;24.40;99.90;;;;;;4964328;28;20213;-70
2023/08/18 07:46:33;;;;;;;14.13;9.40;;;24.50;99.90;;;;;;4965700;28;20437;-70
2023/08/18 07:48:59;;;;;;;9.53;8.53;;;24.50;99.90;;;;;;4966194;28;20449;-70
2023/08/18 07:51:25;;;;;;;9.90;8.30;;;24.40;99.90;;;;;;4960073;28;20442;-70
2023/08/18 07:53:51;;;;;;;15.27;9.07;;;24.50;99.90;;;;;;4963061;28;20248;-70
2023/08/18 07:56:16;;;;;;;10.10;9.00;;;24.60;99.90;;;;;;4962312;28;20233;-70
2023/08/18 07:58:42;;;;;;;10.90;9.13;;;24.60;99.90;;;;;;4966358;28;20437;-70
2023/08/18 08:01:08;;;;;;;10.23;8.00;;;24.60;99.90;;;;;;4961503;28;20276;-70
2023/08/18 08:03:35;;;;;;;9.23;8.40;;;24.70;99.90;;;;;;4964413;28;20186;-70
2023/08/18 08:06:02;;;;;;;8.87;8.07;;;24.80;99.90;;;;;;4965626;28;20512;-71
2023/08/18 08:08:28;;;;;;;13.57;8.47;;;24.90;99.90;;;;;;4963477;28;20450;-71
2023/08/18 08:10:53;;;;;;;11.20;7.57;;;24.90;99.90;;;;;;4963417;28;20453;-71
2023/08/18 08:13:19;;;;;;;14.73;9.70;;;24.90;99.90;;;;;;4964182;28;21062;-71
2023/08/18 08:15:45;;;;;;;8.57;7.77;;;25.00;99.90;;;;;;4957802;28;20519;-71
2023/08/18 08:18:15;;;;;;;9.20;8.33;;;25.00;99.90;;;;;;4964437;28;20572;-71
2023/08/18 08:20:42;;;;;;;12.00;7.80;;;25.10;99.90;;;;;;4963082;28;20562;-71
2023/08/18 08:23:08;;;;;;;10.17;9.13;;;25.20;99.90;;;;;;4959742;28;20441;-71
2023/08/18 08:25:34;;;;;;;10.40;9.33;;;25.20;99.90;;;;;;4964316;28;20462;-71
2023/08/18 08:28:02;;;;;;;11.67;8.70;;;25.30;99.90;;;;;;4962615;28;20452;-71
2023/08/18 08:30:28;;;;;;;11.33;8.50;;;25.40;99.90;;;;;;4962536;28;20431;-71
2023/08/18 08:32:54;;;;;;;19.80;8.57;;;25.50;99.90;;;;;;4964919;28;20449;-71
2023/08/18 08:35:20;;;;;;;11.73;8.27;;;25.50;99.90;;;;;;4957399;28;20492;-71
2023/08/18 08:37:45;;;;;;;12.80;8.60;;;25.50;99.90;;;;;;4962749;28;20233;-70
2023/08/18 08:40:17;;;;;;;16.47;12.97;;;25.60;99.90;;;;;;4960961;28;20434;-71
2023/08/18 08:42:43;;;;;;;10.30;7.27;;;25.60;99.90;;;;;;4966119;28;20178;-71
2023/08/18 08:45:09;;;;;;;9.87;8.53;;;25.60;99.90;;;;;;4961445;28;20458;-71
2023/08/18 08:47:34;;;;;;;10.53;8.30;;;25.60;99.90;;;;;;4965133;28;20191;-71
2023/08/18 08:50:03;;;;;;;18.00;8.60;;;25.70;99.90;;;;;;4963680;28;20202;-72
2023/08/18 08:52:35;;;;;;;9.10;8.20;;;25.60;99.90;;;;;;4965399;28;20198;-70
2023/08/18 08:55:02;;;;;;;9.00;7.43;;;25.70;99.90;;;;;;4964486;28;20482;-71
2023/08/18 08:57:29;;;;;;;8.13;7.37;;;25.80;99.90;;;;;;4963773;28;20623;-71
2023/08/18 08:59:55;;;;;;;13.20;8.57;;;25.80;99.90;;;;;;4961305;28;20529;-72
2023/08/18 09:02:21;;;;;;;12.50;10.83;;;25.90;99.90;;;;;;4973369;28;21065;-71
2023/08/18 09:04:46;;;;;;;16.23;8.93;;;25.90;99.90;;;;;;4985584;28;20520;-70
2023/08/18 09:07:12;;;;;;;10.63;8.33;;;26.00;99.90;;;;;;4982744;28;20638;-70
2023/08/18 09:09:38;;;;;;;9.23;7.80;;;26.00;99.90;;;;;;4969346;28;20198;-70
2023/08/18 09:12:07;;;;;;;14.87;8.27;;;26.10;99.90;;;;;;4964001;28;20199;-70
2023/08/18 09:14:34;;;;;;;8.73;7.50;;;26.20;99.90;;;;;;4965955;28;20273;-70
2023/08/18 09:17:01;;;;;;;9.40;7.80;;;26.30;99.90;;;;;;4969621;28;20429;-70
2023/08/18 09:19:26;;;;;;;8.17;7.30;;;26.40;99.90;;;;;;4962867;28;20939;-70
2023/08/18 09:21:55;;;;;;;8.00;7.20;;;26.40;99.90;;;;;;4966313;28;20491;-70
2023/08/18 09:24:21;;;;;;;8.67;7.57;;;26.50;99.90;;;;;;4965136;28;20294;-70
2023/08/18 09:26:47;;;;;;;8.50;7.57;;;26.60;99.90;;;;;;4967374;28;20473;-71
2023/08/18 09:29:12;;;;;;;7.73;6.93;;;26.60;99.90;;;;;;4961280;28;20250;-70
2023/08/18 09:31:38;;;;;;;8.10;7.00;;;26.60;99.90;;;;;;4964607;28;20175;-71
2023/08/18 09:34:03;;;;;;;11.87;9.77;;;26.70;99.90;;;;;;4966693;28;20209;-71
2023/08/18 09:36:31;;;;;;;10.40;9.47;;;26.70;99.90;;;;;;4964897;28;20254;-70
2023/08/18 09:38:57;;;;;;;9.97;8.90;;;26.80;99.90;;;;;;4968101;28;20183;-70
2023/08/18 09:41:23;;;;;;;11.53;7.27;;;26.80;99.90;;;;;;4965813;28;20464;-70
2023/08/18 09:43:49;;;;;;;7.63;6.93;;;26.90;99.90;;;;;;4965429;28;20262;-70
2023/08/18 09:46:17;;;;;;;10.37;6.60;;;26.90;99.90;;;;;;4962550;28;20962;-71
2023/08/18 09:48:47;;;;;;;10.87;7.67;;;27.00;99.90;;;;;;4969630;28;20170;-70
2023/08/18 09:51:19;;;;;;;10.93;7.53;;;27.10;99.90;;;;;;4970796;28;21026;-70
2023/08/18 09:53:56;;;;;;;11.00;6.73;;;27.20;99.90;;;;;;4967443;28;20442;-70
2023/08/18 09:56:27;;;;;;;9.70;7.13;;;27.20;99.90;;;;;;4971843;28;20511;-70
2023/08/18 09:59:05;;;;;;;9.10;8.30;;;27.30;99.90;;;;;;4960419;28;20441;-71
2023/08/18 10:01:35;;;;;;;9.17;7.20;;;27.40;99.90;;;;;;4958278;28;20422;-71
2023/08/18 10:04:02;;;;;;;7.07;6.43;;;27.40;99.90;;;;;;4956061;28;20431;-70
2023/08/18 10:06:30;;;;;;;8.47;5.83;;;27.50;99.90;;;;;;4958314;28;20508;-71
2023/08/18 10:08:58;;;;;;;8.07;7.27;;;27.60;99.90;;;;;;4963602;28;20465;-71
2023/08/18 10:11:24;;;;;;;9.20;6.80;;;27.60;99.90;;;;;;4974516;28;20975;-71
2023/08/18 10:13:51;;;;;;;6.47;5.87;;;27.70;99.90;;;;;;4956478;28;20438;-70
2023/08/18 10:16:18;;;;;;;6.30;5.70;;;27.70;99.90;;;;;;4959901;28;20687;-70
2023/08/18 10:18:43;;;;;;;6.30;5.50;;;27.80;99.90;;;;;;4958543;28;20845;-71
2023/08/18 10:21:10;;;;;;;8.43;5.20;;;27.90;99.90;;;;;;4958231;28;20438;-71
2023/08/18 10:23:39;;;;;;;10.33;5.80;;;27.90;99.90;;;;;;4964527;28;20632;-71
2023/08/18 10:26:05;;;;;;;7.27;6.03;;;28.00;99.90;;;;;;4965224;28;20446;-71
2023/08/18 10:28:32;;;;;;;7.37;5.93;;;28.10;99.90;;;;;;4963995;28;20915;-71
2023/08/18 10:31:00;;;;;;;6.50;5.57;;;28.10;99.90;;;;;;4968674;28;20714;-71
2023/08/18 10:33:46;;;;;;;9.27;5.60;;;28.20;99.90;;;;;;4966366;28;20465;-71
2023/08/18 10:36:26;;;;;;;6.70;5.67;;;28.30;99.90;;;;;;4967347;28;20434;-71
2023/08/18 10:38:53;;;;;;;6.17;5.37;;;28.30;99.90;;;;;;4967078;28;20939;-71
2023/08/18 10:42:03;;;;;;;6.90;6.23;;;28.40;99.90;;;;;;4958733;28;20427;-72
2023/08/18 10:44:28;;;;;;;7.70;6.10;;;28.50;99.90;;;;;;4961872;28;20434;-71
2023/08/18 10:46:54;;;;;;;6.33;5.73;;;28.50;99.90;;;;;;4963961;28;21030;-72
2023/08/18 10:49:19;;;;;;;10.97;6.10;;;28.60;99.90;;;;;;4964915;28;20270;-71
2023/08/18 10:51:48;;;;;;;7.90;5.80;;;28.60;99.90;;;;;;4967879;28;20664;-71
2023/08/18 10:54:14;;;;;;;6.00;5.50;;;28.70;99.90;;;;;;4962459;28;20211;-70
2023/08/18 10:56:39;;;;;;;7.87;5.50;;;28.80;99.90;;;;;;4962315;28;20444;-70
2023/08/18 10:59:05;;;;;;;6.43;5.73;;;28.80;99.90;;;;;;4965402;28;20189;-70
2023/08/18 11:01:31;;;;;;;6.37;5.83;;;28.90;99.90;;;;;;4961119;28;20179;-70
2023/08/18 11:03:57;;;;;;;9.10;5.90;;;29.00;99.90;;;;;;4964075;28;20437;-70
2023/08/18 11:06:26;;;;;;;8.23;5.83;;;29.00;99.90;;;;;;4963952;28;20210;-70
2023/08/18 11:08:53;;;;;;;7.57;5.57;;;29.10;99.90;;;;;;4964586;28;20840;-70
2023/08/18 11:11:20;;;;;;;7.30;5.47;;;29.10;99.90;;;;;;4964033;28;20445;-70
2023/08/18 11:13:46;;;;;;;10.20;6.13;;;29.20;99.90;;;;;;4962812;28;20444;-71
2023/08/18 11:16:12;;;;;;;8.80;6.63;;;29.30;99.90;;;;;;4963166;28;20434;-71
2023/08/18 11:18:41;;;;;;;8.23;5.77;;;29.30;99.90;;;;;;4965394;28;20520;-71
2023/08/18 11:21:07;;;;;;;6.10;5.50;;;29.40;99.90;;;;;;4963192;28;20489;-70
2023/08/18 11:23:33;;;;;;;6.70;4.43;;;29.40;99.90;;;;;;4963678;28;20438;-70
2023/08/18 11:25:59;;;;;;;8.63;5.50;;;29.50;99.90;;;;;;4963618;28;20943;-70
2023/08/18 11:28:25;;;;;;;7.90;4.47;;;29.60;99.90;;;;;;4963642;28;20198;-70
2023/08/18 11:30:54;;;;;;;5.47;4.97;;;29.70;99.90;;;;;;4960757;28;20201;-70
2023/08/18 11:33:20;;;;;;;6.60;5.00;;;29.70;99.90;;;;;;4962331;28;20194;-70
2023/08/18 11:35:46;;;;;;;8.40;4.80;;;29.80;99.90;;;;;;4966860;28;20470;-70
2023/08/18 11:38:11;;;;;;;6.10;5.47;;;29.90;99.90;;;;;;4966635;28;20190;-70
2023/08/18 11:40:42;;;;;;;6.27;5.30;;;30.00;99.90;;;;;;4965070;28;20651;-70
2023/08/18 11:43:10;;;;;;;6.63;5.10;;;30.10;99.90;;;;;;4961649;28;20186;-70
2023/08/18 11:45:36;;;;;;;6.47;5.03;;;30.20;99.90;;;;;;4965959;28;20464;-70
2023/08/18 11:48:04;;;;;;;10.83;5.60;;;30.30;99.90;;;;;;4960873;28;21065;-70
2023/08/18 11:50:38;;;;;;;7.37;6.67;;;30.40;99.90;;;;;;4963382;28;20950;-70
2023/08/18 11:53:07;;;;;;;15.23;6.20;;;30.50;99.90;;;;;;4964948;28;20441;-70
2023/08/18 11:55:36;;;;;;;4.60;4.20;;;30.60;99.90;;;;;;4962813;28;20477;-70
2023/08/18 11:58:13;;;;;;;5.87;5.20;;;30.80;99.90;;;;;;4962948;28;20449;-70
2023/08/18 12:00:39;;;;;;;8.37;4.50;;;30.90;99.90;;;;;;4960587;28;20484;-72
2023/08/18 12:03:07;;;;;;;7.83;4.50;;;31.20;99.90;;;;;;4964391;28;20750;-72
2023/08/18 12:05:38;;;;;;;8.90;7.80;;;31.40;99.90;;;;;;4957902;28;20539;-72
2023/08/18 12:08:08;;;;;;;7.83;7.03;;;31.50;99.90;;;;;;4961569;28;20851;-69
2023/08/18 12:10:34;;;;;;;10.43;9.37;;;31.80;99.90;;;;;;4962678;28;20538;-69
2023/08/18 12:13:00;;;;;;;6.23;5.63;;;32.20;99.90;;;;;;4962774;28;20906;-70
2023/08/18 12:15:26;;;;;;;7.80;7.00;;;32.70;99.90;;;;;;4964254;28;20218;-70
2023/08/18 12:17:53;;;;;;;6.30;4.70;;;33.10;99.90;;;;;;4962884;28;20248;-69
2023/08/18 12:20:19;;;;;;;5.00;4.50;;;33.40;99.90;;;;;;4966828;28;20443;-71
2023/08/18 12:22:49;;;;;;;4.67;4.27;;;33.70;99.90;;;;;;4960536;28;20935;-71
2023/08/18 12:25:15;;;;;;;5.90;4.27;;;33.90;99.90;;;;;;4963452;28;20490;-71
2023/08/18 12:27:43;;;;;;;6.07;4.77;;;34.10;99.80;;;;;;4958848;28;20412;-73
2023/08/18 12:30:09;;;;;;;6.97;3.90;;;34.40;99.60;;;;;;4965357;28;20413;-71
2023/08/18 12:32:34;;;;;;;6.40;4.63;;;34.40;97.40;;;;;;4963846;28;20420;-71
2023/08/18 12:35:00;;;;;;;10.30;8.43;;;34.60;96.90;;;;;;4961363;28;20481;-71
2023/08/18 12:37:26;;;;;;;10.43;7.33;;;34.80;96.90;;;;;;4962440;28;20254;-71